PWSweather.com
Personal Weather Stations
Station Observations
SHAHALMS1
Eftra, Falkenberg, HA

EftraFalkenberg, HA

Lat: 56.85, Lon: 12.65

Elevation: 140

Station Type:

http://hem.passagen.se/risarp101

High Low Average
Temperature 68.5°F20.3°C 51.4°F10.8°C 60.6°F15.9°C
Dew Point 57.5°F14.2°C 46.5°F8.1°C 53.6°F12.0°C
Winds 6.9 mph 11.1 kmh Calm Calm 2.0 mph WSW3.2 kmh WSW
Wind Gusts 13.6 mph21.9 kmh -- 7.0 mph11.3 kmh
Humidity 92% 61% 79%
Pressure 29.77 in1008.1 mb 29.62 in1003.0 mb -
Precipitation 0.09 in2.3 mm - -
Hour Temp Dew Point Humidity Winds Wind Gusts Pressure Precip Precip Rate Daily Precip Total
12:00 AM 60.4°F15.8°C 54.6°F12.6°C 81% 0.2 mph W0.3 kmh W 4.7 mph7.6 kmh 29.65 in1004.1 mb 0.00 in0.0 mm 0.00 in0.0 mm 0.00 in0.0 mm
12:10 AM 60.3°F15.7°C 54.7°F12.6°C 82% 2.3 mph W3.7 kmh W 12.5 mph20.1 kmh 29.65 in1004.1 mb 0.00 in0.0 mm 0.00 in0.0 mm 0.00 in0.0 mm
12:20 AM 60.1°F15.6°C 54.6°F12.6°C 82% 3.1 mph W5.0 kmh W 10.0 mph16.1 kmh 29.62 in1003.0 mb 0.00 in0.0 mm 0.00 in0.0 mm 0.00 in0.0 mm
12:30 AM 60.1°F15.6°C 54.6°F12.6°C 82% 1.3 mph WNW2.1 kmh WNW 8.9 mph14.3 kmh 29.65 in1004.1 mb 0.00 in0.0 mm 0.00 in0.0 mm 0.00 in0.0 mm
12:40 AM 60.1°F15.6°C 54.6°F12.6°C 82% 0.8 mph W1.3 kmh W 5.4 mph8.7 kmh 29.65 in1004.1 mb 0.00 in0.0 mm 0.00 in0.0 mm 0.00 in0.0 mm
12:50 AM 60.1°F15.6°C 54.9°F12.7°C 83% Calm Calm -- 29.65 in1004.1 mb 0.00 in0.0 mm 0.00 in0.0 mm 0.00 in0.0 mm
01:00 AM 60.1°F15.6°C 54.9°F12.7°C 83% 1.4 mph NNW2.3 kmh NNW 8.6 mph13.8 kmh 29.65 in1004.1 mb 0.00 in0.0 mm 0.00 in0.0 mm 0.00 in0.0 mm
01:10 AM 59.9°F15.5°C 55.1°F12.8°C 84% 0.7 mph NW1.1 kmh NW 4.7 mph7.6 kmh 29.65 in1004.1 mb 0.00 in0.0 mm 0.00 in0.0 mm 0.00 in0.0 mm
01:20 AM 59.9°F15.5°C 55.1°F12.8°C 84% 1.2 mph NW1.9 kmh NW 9.7 mph15.6 kmh 29.65 in1004.1 mb 0.00 in0.0 mm 0.00 in0.0 mm 0.00 in0.0 mm
01:30 AM 59.7°F15.4°C 55.2°F12.9°C 85% 2.3 mph W3.7 kmh W 8.9 mph14.3 kmh 29.65 in1004.1 mb 0.00 in0.0 mm 0.00 in0.0 mm 0.00 in0.0 mm
01:40 AM 59.5°F15.3°C 55.0°F12.8°C 85% 3.2 mph W5.1 kmh W 8.9 mph14.3 kmh 29.65 in1004.1 mb 0.00 in0.0 mm 0.00 in0.0 mm 0.00 in0.0 mm
01:50 AM 59.5°F15.3°C 55.0°F12.8°C 85% 3.1 mph W5.0 kmh W 8.6 mph13.8 kmh 29.65 in1004.1 mb 0.00 in0.0 mm 0.00 in0.0 mm 0.00 in0.0 mm
02:00 AM 59.4°F15.2°C 55.2°F12.9°C 86% 3.6 mph WNW5.8 kmh WNW 9.7 mph15.6 kmh 29.68 in1005.1 mb 0.00 in0.0 mm 0.00 in0.0 mm 0.00 in0.0 mm
02:10 AM 59.2°F15.1°C 55.0°F12.8°C 86% 2.8 mph WNW4.5 kmh WNW 6.4 mph10.3 kmh 29.68 in1005.1 mb 0.00 in0.0 mm 0.00 in0.0 mm 0.00 in0.0 mm
02:20 AM 59.2°F15.1°C 55.0°F12.8°C 86% 4.9 mph WNW7.9 kmh WNW 11.5 mph18.5 kmh 29.68 in1005.1 mb 0.00 in0.0 mm 0.00 in0.0 mm 0.00 in0.0 mm
02:30 AM 59.0°F15.0°C 55.1°F12.8°C 87% 2.9 mph WNW4.7 kmh WNW 7.9 mph12.7 kmh 29.68 in1005.1 mb 0.00 in0.0 mm 0.00 in0.0 mm 0.00 in0.0 mm
02:40 AM 59.0°F15.0°C 55.4°F13.0°C 88% 4.4 mph NW7.1 kmh NW 12.2 mph19.6 kmh 29.68 in1005.1 mb 0.00 in0.0 mm 0.00 in0.0 mm 0.00 in0.0 mm
02:50 AM 58.8°F14.9°C 55.6°F13.1°C 89% 4.4 mph WNW7.1 kmh WNW 10.4 mph16.7 kmh 29.65 in1004.1 mb 0.00 in0.0 mm 0.00 in0.0 mm 0.00 in0.0 mm
03:00 AM 58.8°F14.9°C 55.6°F13.1°C 89% 4.5 mph WNW7.2 kmh WNW 10.0 mph16.1 kmh 29.68 in1005.1 mb 0.00 in0.0 mm 0.00 in0.0 mm 0.00 in0.0 mm
03:10 AM 58.6°F14.8°C 55.4°F13.0°C 89% 4.3 mph W6.9 kmh W 12.2 mph19.6 kmh 29.68 in1005.1 mb 0.00 in0.0 mm 0.00 in0.0 mm 0.00 in0.0 mm
03:20 AM 58.5°F14.7°C 55.2°F12.9°C 89% 3.8 mph WNW6.1 kmh WNW 12.9 mph20.8 kmh 29.68 in1005.1 mb 0.00 in0.0 mm 0.00 in0.0 mm 0.00 in0.0 mm
03:30 AM 58.3°F14.6°C 55.4°F13.0°C 90% 3.9 mph NW6.3 kmh NW 9.7 mph15.6 kmh 29.68 in1005.1 mb 0.00 in0.0 mm 0.00 in0.0 mm 0.00 in0.0 mm
03:40 AM 58.3°F14.6°C 55.4°F13.0°C 90% 2.5 mph WNW4.0 kmh WNW 10.0 mph16.1 kmh 29.68 in1005.1 mb 0.00 in0.0 mm 0.00 in0.0 mm 0.00 in0.0 mm
03:50 AM 58.3°F14.6°C 55.4°F13.0°C 90% 2.1 mph NW3.4 kmh NW 8.6 mph13.8 kmh 29.68 in1005.1 mb 0.00 in0.0 mm 0.00 in0.0 mm 0.00 in0.0 mm
04:00 AM 58.1°F14.5°C 55.2°F12.9°C 90% 4.4 mph WNW7.1 kmh WNW 12.9 mph20.8 kmh 29.68 in1005.1 mb 0.00 in0.0 mm 0.00 in0.0 mm 0.00 in0.0 mm
04:10 AM 57.9°F14.4°C 55.0°F12.8°C 90% 3.6 mph NW5.8 kmh NW 11.8 mph19.0 kmh 29.68 in1005.1 mb 0.00 in0.0 mm 0.00 in0.0 mm 0.00 in0.0 mm
04:20 AM 57.7°F14.3°C 55.1°F12.8°C 91% 3.9 mph NW6.3 kmh NW 8.9 mph14.3 kmh 29.68 in1005.1 mb 0.00 in0.0 mm 0.00 in0.0 mm 0.00 in0.0 mm
04:30 AM 57.6°F14.2°C 55.0°F12.8°C 91% 3.0 mph WNW4.8 kmh WNW 10.4 mph16.7 kmh 29.68 in1005.1 mb 0.00 in0.0 mm 0.00 in0.0 mm 0.00 in0.0 mm
04:40 AM 57.6°F14.2°C 55.0°F12.8°C 91% 3.4 mph WNW5.5 kmh WNW 10.0 mph16.1 kmh 29.68 in1005.1 mb 0.00 in0.0 mm 0.00 in0.0 mm 0.00 in0.0 mm
04:50 AM 57.6°F14.2°C 55.0°F12.8°C 91% 4.6 mph WNW7.4 kmh WNW 10.4 mph16.7 kmh 29.65 in1004.1 mb 0.00 in0.0 mm 0.00 in0.0 mm 0.00 in0.0 mm
05:00 AM 57.4°F14.1°C 54.8°F12.7°C 91% 3.2 mph NW5.1 kmh NW 12.9 mph20.8 kmh 29.68 in1005.1 mb 0.00 in0.0 mm 0.00 in0.0 mm 0.00 in0.0 mm
05:10 AM 57.4°F14.1°C 54.8°F12.7°C 91% 2.5 mph NW4.0 kmh NW 8.6 mph13.8 kmh 29.68 in1005.1 mb 0.00 in0.0 mm 0.00 in0.0 mm 0.00 in0.0 mm
05:20 AM 57.4°F14.1°C 54.8°F12.7°C 91% 3.3 mph WNW5.3 kmh WNW 8.9 mph14.3 kmh 29.68 in1005.1 mb 0.00 in0.0 mm 0.00 in0.0 mm 0.00 in0.0 mm
05:30 AM 57.4°F14.1°C 54.8°F12.7°C 91% 3.4 mph NW5.5 kmh NW 11.1 mph17.9 kmh 29.68 in1005.1 mb 0.00 in0.0 mm 0.00 in0.0 mm 0.00 in0.0 mm
05:40 AM 57.2°F14.0°C 54.9°F12.7°C 92% 3.2 mph NW5.1 kmh NW 9.7 mph15.6 kmh 29.68 in1005.1 mb 0.00 in0.0 mm 0.00 in0.0 mm 0.00 in0.0 mm
05:50 AM 57.2°F14.0°C 54.9°F12.7°C 92% 2.5 mph NW4.0 kmh NW 6.4 mph10.3 kmh 29.68 in1005.1 mb 0.00 in0.0 mm 0.00 in0.0 mm 0.00 in0.0 mm
06:00 AM 57.2°F14.0°C 54.9°F12.7°C 92% 1.7 mph NW2.7 kmh NW 6.8 mph10.9 kmh 29.68 in1005.1 mb 0.00 in0.0 mm 0.00 in0.0 mm 0.00 in0.0 mm
06:10 AM 57.2°F14.0°C 54.9°F12.7°C 92% 1.6 mph NW2.6 kmh NW 7.5 mph12.1 kmh 29.68 in1005.1 mb 0.00 in0.0 mm 0.00 in0.0 mm 0.00 in0.0 mm
06:20 AM 57.2°F14.0°C 54.6°F12.6°C 91% 2.7 mph WNW4.3 kmh WNW 8.6 mph13.8 kmh 29.71 in1006.1 mb 0.00 in0.0 mm 0.00 in0.0 mm 0.00 in0.0 mm
06:30 AM 57.2°F14.0°C 54.6°F12.6°C 91% 1.8 mph NW2.9 kmh NW 8.6 mph13.8 kmh 29.71 in1006.1 mb 0.00 in0.0 mm 0.00 in0.0 mm 0.00 in0.0 mm
06:40 AM 57.2°F14.0°C 54.6°F12.6°C 91% 1.6 mph NW2.6 kmh NW 8.6 mph13.8 kmh 29.71 in1006.1 mb 0.00 in0.0 mm 0.00 in0.0 mm 0.00 in0.0 mm
06:50 AM 57.2°F14.0°C 54.6°F12.6°C 91% 1.4 mph NW2.3 kmh NW 6.1 mph9.8 kmh 29.71 in1006.1 mb 0.05 in1.3 mm 0.30 in7.6 mm 0.05 in1.3 mm
07:00 AM 57.0°F13.9°C 54.4°F12.4°C 91% 2.4 mph NW3.9 kmh NW 8.9 mph14.3 kmh 29.71 in1006.1 mb 0.05 in1.3 mm 0.00 in0.0 mm 0.05 in1.3 mm
07:10 AM 56.8°F13.8°C 54.5°F12.5°C 92% 4.4 mph NNW7.1 kmh NNW 10.4 mph16.7 kmh 29.71 in1006.1 mb 0.05 in1.3 mm 0.00 in0.0 mm 0.05 in1.3 mm
07:20 AM 56.8°F13.8°C 54.5°F12.5°C 92% 2.1 mph NW3.4 kmh NW 10.4 mph16.7 kmh 29.74 in1007.1 mb 0.05 in1.3 mm 0.00 in0.0 mm 0.05 in1.3 mm
07:30 AM 56.8°F13.8°C 54.5°F12.5°C 92% 1.9 mph NW3.1 kmh NW 8.6 mph13.8 kmh 29.74 in1007.1 mb 0.05 in1.3 mm 0.00 in0.0 mm 0.05 in1.3 mm
07:40 AM 56.8°F13.8°C 54.5°F12.5°C 92% 1.8 mph NW2.9 kmh NW 6.4 mph10.3 kmh 29.74 in1007.1 mb 0.05 in1.3 mm 0.00 in0.0 mm 0.05 in1.3 mm
07:50 AM 56.8°F13.8°C 54.5°F12.5°C 92% 0.8 mph NW1.3 kmh NW 5.4 mph8.7 kmh 29.74 in1007.1 mb 0.00 in0.0 mm 0.00 in0.0 mm 0.05 in1.3 mm
08:00 AM 56.8°F13.8°C 54.5°F12.5°C 92% 1.5 mph NW2.4 kmh NW 6.4 mph10.3 kmh 29.74 in1007.1 mb 0.00 in0.0 mm 0.00 in0.0 mm 0.05 in1.3 mm
08:10 AM 57.0°F13.9°C 54.7°F12.6°C 92% 1.7 mph W2.7 kmh W 6.1 mph9.8 kmh 29.74 in1007.1 mb 0.00 in0.0 mm 0.00 in0.0 mm 0.05 in1.3 mm
08:20 AM 57.2°F14.0°C 54.9°F12.7°C 92% 1.3 mph WNW2.1 kmh WNW 6.4 mph10.3 kmh 29.74 in1007.1 mb 0.00 in0.0 mm 0.00 in0.0 mm 0.05 in1.3 mm
08:30 AM 57.4°F14.1°C 55.1°F12.8°C 92% 1.8 mph WNW2.9 kmh WNW 6.8 mph10.9 kmh 29.77 in1008.1 mb 0.00 in0.0 mm 0.00 in0.0 mm 0.05 in1.3 mm
08:40 AM 57.7°F14.3°C 55.4°F13.0°C 92% 0.9 mph WNW1.4 kmh WNW 6.1 mph9.8 kmh 29.77 in1008.1 mb 0.00 in0.0 mm 0.00 in0.0 mm 0.05 in1.3 mm
08:50 AM 58.3°F14.6°C 56.0°F13.3°C 92% 4.2 mph NNW6.8 kmh NNW 9.7 mph15.6 kmh 29.74 in1007.1 mb 0.00 in0.0 mm 0.00 in0.0 mm 0.05 in1.3 mm
09:00 AM 58.3°F14.6°C 55.7°F13.2°C 91% 5.0 mph NNW8.0 kmh NNW 10.4 mph16.7 kmh 29.74 in1007.1 mb 0.00 in0.0 mm 0.00 in0.0 mm 0.05 in1.3 mm
09:10 AM 58.3°F14.6°C 55.4°F13.0°C 90% 4.8 mph NW7.7 kmh NW 10.0 mph16.1 kmh 29.74 in1007.1 mb 0.00 in0.0 mm 0.00 in0.0 mm 0.05 in1.3 mm
09:20 AM 58.6°F14.8°C 55.7°F13.2°C 90% 2.7 mph NNW4.3 kmh NNW 8.6 mph13.8 kmh 29.74 in1007.1 mb 0.00 in0.0 mm 0.00 in0.0 mm 0.05 in1.3 mm
09:30 AM 59.4°F15.2°C 56.1°F13.4°C 89% 6.7 mph N10.8 kmh N 12.9 mph20.8 kmh 29.74 in1007.1 mb 0.00 in0.0 mm 0.00 in0.0 mm 0.05 in1.3 mm
09:40 AM 59.4°F15.2°C 55.5°F13.1°C 87% 5.9 mph NNW9.5 kmh NNW 11.8 mph19.0 kmh 29.74 in1007.1 mb 0.00 in0.0 mm 0.00 in0.0 mm 0.05 in1.3 mm
09:50 AM 59.7°F15.4°C 55.8°F13.2°C 87% 3.7 mph NNW6.0 kmh NNW 9.3 mph15.0 kmh 29.74 in1007.1 mb 0.00 in0.0 mm 0.00 in0.0 mm 0.05 in1.3 mm
10:00 AM 60.3°F15.7°C 55.7°F13.2°C 85% 3.5 mph NW5.6 kmh NW 10.4 mph16.7 kmh 29.74 in1007.1 mb 0.00 in0.0 mm 0.00 in0.0 mm 0.05 in1.3 mm
10:10 AM 60.8°F16.0°C 55.9°F13.3°C 84% 4.2 mph NNW6.8 kmh NNW 10.0 mph16.1 kmh 29.74 in1007.1 mb 0.00 in0.0 mm 0.00 in0.0 mm 0.05 in1.3 mm
10:20 AM 61.3°F16.3°C 55.5°F13.1°C 81% 6.4 mph NNW10.3 kmh NNW 12.5 mph20.1 kmh 29.74 in1007.1 mb 0.00 in0.0 mm 0.00 in0.0 mm 0.05 in1.3 mm
10:30 AM 62.1°F16.7°C 55.5°F13.1°C 79% 5.9 mph NNW9.5 kmh NNW 13.6 mph21.9 kmh 29.77 in1008.1 mb 0.00 in0.0 mm 0.00 in0.0 mm 0.05 in1.3 mm
10:40 AM 62.8°F17.1°C 55.8°F13.2°C 78% 4.5 mph NNW7.2 kmh NNW 10.0 mph16.1 kmh 29.77 in1008.1 mb 0.00 in0.0 mm 0.00 in0.0 mm 0.05 in1.3 mm
10:50 AM 62.6°F17.0°C 55.3°F12.9°C 77% 3.4 mph NW5.5 kmh NW 11.1 mph17.9 kmh 29.74 in1007.1 mb 0.00 in0.0 mm 0.00 in0.0 mm 0.05 in1.3 mm
11:00 AM 61.9°F16.6°C 54.9°F12.7°C 78% 5.1 mph NNW8.2 kmh NNW 11.8 mph19.0 kmh 29.71 in1006.1 mb 0.00 in0.0 mm 0.00 in0.0 mm 0.05 in1.3 mm
11:10 AM 62.4°F16.9°C 55.8°F13.2°C 79% 1.7 mph NNW2.7 kmh NNW 8.6 mph13.8 kmh 29.71 in1006.1 mb 0.00 in0.0 mm 0.00 in0.0 mm 0.05 in1.3 mm
11:20 AM 62.6°F17.0°C 55.3°F12.9°C 77% 1.4 mph NW2.3 kmh NW 6.8 mph10.9 kmh 29.71 in1006.1 mb 0.00 in0.0 mm 0.00 in0.0 mm 0.05 in1.3 mm
11:30 AM 63.0°F17.2°C 55.6°F13.1°C 77% 4.2 mph NNW6.8 kmh NNW 8.9 mph14.3 kmh 29.74 in1007.1 mb 0.00 in0.0 mm 0.00 in0.0 mm 0.05 in1.3 mm
11:40 AM 63.7°F17.6°C 56.0°F13.3°C 76% 3.2 mph NW5.1 kmh NW 6.8 mph10.9 kmh 29.74 in1007.1 mb 0.00 in0.0 mm 0.00 in0.0 mm 0.05 in1.3 mm
11:50 AM 63.7°F17.6°C 55.6°F13.1°C 75% 3.2 mph NNW5.1 kmh NNW 8.9 mph14.3 kmh 29.74 in1007.1 mb 0.00 in0.0 mm 0.00 in0.0 mm 0.05 in1.3 mm
12:00 PM 63.7°F17.6°C 55.2°F12.9°C 74% 5.6 mph N9.0 kmh N 10.4 mph16.7 kmh 29.71 in1006.1 mb 0.00 in0.0 mm 0.00 in0.0 mm 0.05 in1.3 mm
12:10 PM 64.0°F17.8°C 55.2°F12.9°C 73% 3.3 mph NW5.3 kmh NW 8.9 mph14.3 kmh 29.71 in1006.1 mb 0.00 in0.0 mm 0.00 in0.0 mm 0.05 in1.3 mm
12:20 PM 64.9°F18.3°C 55.7°F13.2°C 72% 3.4 mph NW5.5 kmh NW 9.7 mph15.6 kmh 29.74 in1007.1 mb 0.05 in1.3 mm 0.30 in7.6 mm 0.09 in2.3 mm
12:30 PM 65.5°F18.6°C 56.2°F13.4°C 72% 3.3 mph NNW5.3 kmh NNW 9.3 mph15.0 kmh 29.71 in1006.1 mb 0.05 in1.3 mm 0.00 in0.0 mm 0.09 in2.3 mm
12:40 PM 66.7°F19.3°C 57.4°F14.1°C 72% 2.6 mph W4.2 kmh W 7.9 mph12.7 kmh 29.71 in1006.1 mb 0.05 in1.3 mm 0.00 in0.0 mm 0.09 in2.3 mm
12:50 PM 66.6°F19.2°C 56.1°F13.4°C 69% 3.6 mph NW5.8 kmh NW 10.0 mph16.1 kmh 29.71 in1006.1 mb 0.05 in1.3 mm 0.00 in0.0 mm 0.09 in2.3 mm
01:00 PM 67.6°F19.8°C 57.5°F14.2°C 70% 3.6 mph W5.8 kmh W 7.9 mph12.7 kmh 29.74 in1007.1 mb 0.05 in1.3 mm 0.00 in0.0 mm 0.09 in2.3 mm
01:10 PM 68.0°F20.0°C 57.0°F13.9°C 68% 3.2 mph W5.1 kmh W 11.1 mph17.9 kmh 29.74 in1007.1 mb 0.05 in1.3 mm 0.00 in0.0 mm 0.09 in2.3 mm
01:20 PM 67.3°F19.6°C 55.9°F13.3°C 67% 3.1 mph NW5.0 kmh NW 9.7 mph15.6 kmh 29.74 in1007.1 mb 0.00 in0.0 mm 0.00 in0.0 mm 0.09 in2.3 mm
01:30 PM 67.1°F19.5°C 56.2°F13.4°C 68% 2.9 mph W4.7 kmh W 6.8 mph10.9 kmh 29.71 in1006.1 mb 0.00 in0.0 mm 0.00 in0.0 mm 0.09 in2.3 mm
01:40 PM 67.3°F19.6°C 56.4°F13.6°C 68% 2.9 mph W4.7 kmh W 7.5 mph12.1 kmh 29.71 in1006.1 mb 0.00 in0.0 mm 0.00 in0.0 mm 0.09 in2.3 mm
01:50 PM 68.0°F20.0°C 56.6°F13.7°C 67% 2.4 mph W3.9 kmh W 8.6 mph13.8 kmh 29.74 in1007.1 mb 0.00 in0.0 mm 0.00 in0.0 mm 0.09 in2.3 mm
02:00 PM 68.5°F20.3°C 57.1°F13.9°C 67% 2.9 mph WSW4.7 kmh WSW 7.9 mph12.7 kmh 29.74 in1007.1 mb 0.00 in0.0 mm 0.00 in0.0 mm 0.09 in2.3 mm
02:10 PM 68.2°F20.1°C 56.4°F13.6°C 66% 2.9 mph WNW4.7 kmh WNW 6.8 mph10.9 kmh 29.74 in1007.1 mb 0.00 in0.0 mm 0.00 in0.0 mm 0.09 in2.3 mm
02:20 PM 68.0°F20.0°C 56.2°F13.4°C 66% 3.4 mph W5.5 kmh W 8.6 mph13.8 kmh 29.74 in1007.1 mb 0.00 in0.0 mm 0.00 in0.0 mm 0.09 in2.3 mm
02:30 PM 67.8°F19.9°C 56.0°F13.3°C 66% 4.3 mph W6.9 kmh W 10.4 mph16.7 kmh 29.74 in1007.1 mb 0.00 in0.0 mm 0.00 in0.0 mm 0.09 in2.3 mm
02:40 PM 67.8°F19.9°C 56.5°F13.6°C 67% 3.5 mph W5.6 kmh W 8.6 mph13.8 kmh 29.74 in1007.1 mb 0.00 in0.0 mm 0.00 in0.0 mm 0.09 in2.3 mm
02:50 PM 66.6°F19.2°C 54.8°F12.7°C 66% 3.2 mph WNW5.1 kmh WNW 10.4 mph16.7 kmh 29.71 in1006.1 mb 0.00 in0.0 mm 0.00 in0.0 mm 0.09 in2.3 mm
03:00 PM 66.4°F19.1°C 55.1°F12.8°C 67% 3.1 mph W5.0 kmh W 10.4 mph16.7 kmh 29.74 in1007.1 mb 0.00 in0.0 mm 0.00 in0.0 mm 0.09 in2.3 mm
03:10 PM 66.6°F19.2°C 55.3°F12.9°C 67% 2.6 mph NW4.2 kmh NW 10.4 mph16.7 kmh 29.74 in1007.1 mb 0.00 in0.0 mm 0.00 in0.0 mm 0.09 in2.3 mm
03:20 PM 66.6°F19.2°C 55.3°F12.9°C 67% 2.5 mph W4.0 kmh W 6.8 mph10.9 kmh 29.74 in1007.1 mb 0.00 in0.0 mm 0.00 in0.0 mm 0.09 in2.3 mm
03:30 PM 66.7°F19.3°C 55.0°F12.8°C 66% 2.0 mph WNW3.2 kmh WNW 9.3 mph15.0 kmh 29.74 in1007.1 mb 0.00 in0.0 mm 0.00 in0.0 mm 0.09 in2.3 mm
03:40 PM 66.9°F19.4°C 54.8°F12.7°C 65% 2.4 mph W3.9 kmh W 6.8 mph10.9 kmh 29.74 in1007.1 mb 0.00 in0.0 mm 0.00 in0.0 mm 0.09 in2.3 mm
03:50 PM 67.5°F19.7°C 55.3°F12.9°C 65% 2.6 mph W4.2 kmh W 7.5 mph12.1 kmh 29.74 in1007.1 mb 0.00 in0.0 mm 0.00 in0.0 mm 0.09 in2.3 mm
04:00 PM 67.3°F19.6°C 54.7°F12.6°C 64% 2.0 mph WNW3.2 kmh WNW 10.0 mph16.1 kmh 29.74 in1007.1 mb 0.00 in0.0 mm 0.00 in0.0 mm 0.09 in2.3 mm
04:10 PM 67.3°F19.6°C 54.7°F12.6°C 64% 2.3 mph WNW3.7 kmh WNW 7.9 mph12.7 kmh 29.74 in1007.1 mb 0.00 in0.0 mm 0.00 in0.0 mm 0.09 in2.3 mm
04:20 PM 67.5°F19.7°C 54.9°F12.7°C 64% 1.8 mph WSW2.9 kmh WSW 6.4 mph10.3 kmh 29.71 in1006.1 mb 0.00 in0.0 mm 0.00 in0.0 mm 0.09 in2.3 mm
04:30 PM 67.8°F19.9°C 54.8°F12.7°C 63% 2.5 mph W4.0 kmh W 6.4 mph10.3 kmh 29.71 in1006.1 mb 0.00 in0.0 mm 0.00 in0.0 mm 0.09 in2.3 mm
04:40 PM 68.0°F20.0°C 54.5°F12.5°C 62% 1.0 mph WSW1.6 kmh WSW 5.7 mph9.2 kmh 29.71 in1006.1 mb 0.00 in0.0 mm 0.00 in0.0 mm 0.09 in2.3 mm
04:50 PM 67.6°F19.8°C 53.7°F12.1°C 61% 2.5 mph NNW4.0 kmh NNW 6.4 mph10.3 kmh 29.71 in1006.1 mb 0.00 in0.0 mm 0.00 in0.0 mm 0.09 in2.3 mm
05:00 PM 67.1°F19.5°C 53.2°F11.8°C 61% 2.9 mph NNW4.7 kmh NNW 7.9 mph12.7 kmh 29.71 in1006.1 mb 0.00 in0.0 mm 0.00 in0.0 mm 0.09 in2.3 mm
05:10 PM 67.6°F19.8°C 54.2°F12.3°C 62% 0.4 mph WSW0.6 kmh WSW 6.1 mph9.8 kmh 29.71 in1006.1 mb 0.00 in0.0 mm 0.00 in0.0 mm 0.09 in2.3 mm
05:20 PM 67.8°F19.9°C 54.8°F12.7°C 63% 2.6 mph SW4.2 kmh SW 6.8 mph10.9 kmh 29.68 in1005.1 mb 0.00 in0.0 mm 0.00 in0.0 mm 0.09 in2.3 mm
05:30 PM 68.0°F20.0°C 54.5°F12.5°C 62% 2.9 mph WSW4.7 kmh WSW 6.8 mph10.9 kmh 29.71 in1006.1 mb 0.00 in0.0 mm 0.00 in0.0 mm 0.09 in2.3 mm
05:40 PM 67.8°F19.9°C 54.8°F12.7°C 63% 2.1 mph W3.4 kmh W 6.8 mph10.9 kmh 29.71 in1006.1 mb 0.00 in0.0 mm 0.00 in0.0 mm 0.09 in2.3 mm
05:50 PM 67.3°F19.6°C 53.4°F11.9°C 61% 3.5 mph WSW5.6 kmh WSW 9.7 mph15.6 kmh 29.71 in1006.1 mb 0.00 in0.0 mm 0.00 in0.0 mm 0.09 in2.3 mm
06:00 PM 66.7°F19.3°C 52.9°F11.6°C 61% 3.1 mph W5.0 kmh W 7.5 mph12.1 kmh 29.71 in1006.1 mb 0.00 in0.0 mm 0.00 in0.0 mm 0.09 in2.3 mm
06:10 PM 66.2°F19.0°C 52.3°F11.3°C 61% 3.2 mph WSW5.1 kmh WSW 7.5 mph12.1 kmh 29.71 in1006.1 mb 0.00 in0.0 mm 0.00 in0.0 mm 0.09 in2.3 mm
06:20 PM 65.7°F18.7°C 52.3°F11.3°C 62% 2.7 mph W4.3 kmh W 8.6 mph13.8 kmh 29.71 in1006.1 mb 0.00 in0.0 mm 0.00 in0.0 mm 0.09 in2.3 mm
06:30 PM 64.4°F18.0°C 50.7°F10.4°C 61% 1.4 mph W2.3 kmh W 5.7 mph9.2 kmh 29.71 in1006.1 mb 0.00 in0.0 mm 0.00 in0.0 mm 0.09 in2.3 mm
06:40 PM 63.5°F17.5°C 49.8°F9.9°C 61% 1.1 mph W1.8 kmh W 5.4 mph8.7 kmh 29.71 in1006.1 mb 0.00 in0.0 mm 0.00 in0.0 mm 0.09 in2.3 mm
06:50 PM 62.8°F17.1°C 49.6°F9.8°C 62% 0.4 mph W0.6 kmh W 2.5 mph4.0 kmh 29.71 in1006.1 mb 0.00 in0.0 mm 0.00 in0.0 mm 0.09 in2.3 mm
07:00 PM 62.1°F16.7°C 49.7°F9.8°C 64% 0.2 mph NW0.3 kmh NW 1.8 mph2.9 kmh 29.74 in1007.1 mb 0.00 in0.0 mm 0.00 in0.0 mm 0.09 in2.3 mm
07:10 PM 61.9°F16.6°C 50.0°F10.0°C 65% 0.2 mph NW0.3 kmh NW 3.6 mph5.8 kmh 29.74 in1007.1 mb 0.00 in0.0 mm 0.00 in0.0 mm 0.09 in2.3 mm
07:20 PM 61.5°F16.4°C 50.1°F10.1°C 66% 0.1 mph NW0.2 kmh NW 1.8 mph2.9 kmh 29.71 in1006.1 mb 0.00 in0.0 mm 0.00 in0.0 mm 0.09 in2.3 mm
07:30 PM 61.2°F16.2°C 49.7°F9.8°C 66% Calm Calm -- 29.71 in1006.1 mb 0.00 in0.0 mm 0.00 in0.0 mm 0.09 in2.3 mm
07:40 PM 60.8°F16.0°C 49.8°F9.9°C 67% Calm Calm -- 29.71 in1006.1 mb 0.00 in0.0 mm 0.00 in0.0 mm 0.09 in2.3 mm
07:50 PM 60.6°F15.9°C 49.6°F9.8°C 67% Calm Calm -- 29.71 in1006.1 mb 0.00 in0.0 mm 0.00 in0.0 mm 0.09 in2.3 mm
08:00 PM 60.3°F15.7°C 49.7°F9.8°C 68% Calm Calm -- 29.74 in1007.1 mb 0.00 in0.0 mm 0.00 in0.0 mm 0.09 in2.3 mm
08:10 PM 59.9°F15.5°C 49.7°F9.8°C 69% 0.1 mph S0.2 kmh S 1.4 mph2.3 kmh 29.74 in1007.1 mb 0.00 in0.0 mm 0.00 in0.0 mm 0.09 in2.3 mm
08:20 PM 59.5°F15.3°C 50.1°F10.1°C 71% 0.1 mph S0.2 kmh S 1.8 mph2.9 kmh 29.74 in1007.1 mb 0.00 in0.0 mm 0.00 in0.0 mm 0.09 in2.3 mm
08:30 PM 58.6°F14.8°C 49.3°F9.6°C 71% Calm Calm -- 29.71 in1006.1 mb 0.00 in0.0 mm 0.00 in0.0 mm 0.09 in2.3 mm
08:40 PM 57.7°F14.3°C 48.8°F9.3°C 72% Calm Calm -- 29.71 in1006.1 mb 0.00 in0.0 mm 0.00 in0.0 mm 0.09 in2.3 mm
08:50 PM 56.5°F13.6°C 48.3°F9.1°C 74% 0.1 mph SE0.2 kmh SE 3.2 mph5.1 kmh 29.71 in1006.1 mb 0.00 in0.0 mm 0.00 in0.0 mm 0.09 in2.3 mm
09:00 PM 55.8°F13.2°C 47.6°F8.7°C 74% Calm Calm -- 29.71 in1006.1 mb 0.00 in0.0 mm 0.00 in0.0 mm 0.09 in2.3 mm
09:10 PM 55.0°F12.8°C 48.0°F8.9°C 77% Calm Calm -- 29.71 in1006.1 mb 0.00 in0.0 mm 0.00 in0.0 mm 0.09 in2.3 mm
09:20 PM 54.9°F12.7°C 48.1°F8.9°C 78% Calm Calm -- 29.71 in1006.1 mb 0.00 in0.0 mm 0.00 in0.0 mm 0.09 in2.3 mm
09:30 PM 54.9°F12.7°C 48.1°F8.9°C 78% Calm Calm -- 29.71 in1006.1 mb 0.00 in0.0 mm 0.00 in0.0 mm 0.09 in2.3 mm
09:40 PM 54.9°F12.7°C 48.5°F9.2°C 79% 0.1 mph ESE0.2 kmh ESE 2.5 mph4.0 kmh 29.71 in1006.1 mb 0.00 in0.0 mm 0.00 in0.0 mm 0.09 in2.3 mm
09:50 PM 54.3°F12.4°C 47.9°F8.8°C 79% 0.1 mph S0.2 kmh S 2.5 mph4.0 kmh 29.71 in1006.1 mb 0.00 in0.0 mm 0.00 in0.0 mm 0.09 in2.3 mm
10:00 PM 54.0°F12.2°C 47.6°F8.7°C 79% Calm Calm -- 29.71 in1006.1 mb 0.00 in0.0 mm 0.00 in0.0 mm 0.09 in2.3 mm
10:10 PM 53.4°F11.9°C 47.1°F8.4°C 79% 0.1 mph ESE0.2 kmh ESE 2.5 mph4.0 kmh 29.71 in1006.1 mb 0.00 in0.0 mm 0.00 in0.0 mm 0.09 in2.3 mm
10:20 PM 53.2°F11.8°C 47.2°F8.4°C 80% Calm Calm -- 29.71 in1006.1 mb 0.00 in0.0 mm 0.00 in0.0 mm 0.09 in2.3 mm
10:30 PM 52.5°F11.4°C 46.5°F8.1°C 80% 2.3 mph E3.7 kmh E 7.5 mph12.1 kmh 29.71 in1006.1 mb 0.00 in0.0 mm 0.00 in0.0 mm 0.09 in2.3 mm
10:40 PM 52.5°F11.4°C 47.5°F8.6°C 83% 6.0 mph ESE9.7 kmh ESE 10.0 mph16.1 kmh 29.71 in1006.1 mb 0.00 in0.0 mm 0.00 in0.0 mm 0.09 in2.3 mm
10:50 PM 52.3°F11.3°C 47.3°F8.5°C 83% 6.9 mph ESE11.1 kmh ESE 9.7 mph15.6 kmh 29.68 in1005.1 mb 0.00 in0.0 mm 0.00 in0.0 mm 0.09 in2.3 mm
11:00 PM 52.3°F11.3°C 47.6°F8.7°C 84% 6.3 mph ESE10.1 kmh ESE 10.4 mph16.7 kmh 29.71 in1006.1 mb 0.00 in0.0 mm 0.00 in0.0 mm 0.10 in2.5 mm
11:10 PM 52.3°F11.3°C 47.6°F8.7°C 84% 3.0 mph SE4.8 kmh SE 6.8 mph10.9 kmh 29.71 in1006.1 mb 0.00 in0.0 mm 0.00 in0.0 mm 0.10 in2.5 mm
11:20 PM 52.0°F11.1°C 47.3°F8.5°C 84% 0.5 mph SE0.8 kmh SE 5.7 mph9.2 kmh 29.71 in1006.1 mb 0.00 in0.0 mm 0.00 in0.0 mm 0.10 in2.5 mm
11:30 PM 51.8°F11.0°C 47.1°F8.4°C 84% 1.2 mph ESE1.9 kmh ESE 5.7 mph9.2 kmh 29.68 in1005.1 mb 0.00 in0.0 mm 0.00 in0.0 mm 0.10 in2.5 mm
11:40 PM 51.6°F10.9°C 47.3°F8.5°C 85% 0.1 mph S0.2 kmh S 2.1 mph3.4 kmh 29.68 in1005.1 mb 0.00 in0.0 mm 0.00 in0.0 mm 0.10 in2.5 mm
11:50 PM 51.4°F10.8°C 47.1°F8.4°C 85% Calm Calm 2.1 mph3.4 kmh 29.71 in1006.1 mb 0.00 in0.0 mm 0.00 in0.0 mm 0.10 in2.5 mm